createdAt,value
2018-12-12T12:02:15.547Z,8.75
2018-12-12T12:07:19.002Z,6.92
2018-12-12T12:12:22.351Z,7.42
2018-12-12T12:17:25.758Z,7.87
2018-12-12T12:27:33.750Z,11.63
2018-12-12T12:32:39.648Z,9.93
2018-12-12T12:37:45.394Z,11.12
2018-12-12T12:42:51.567Z,7.50
2018-12-12T12:47:54.964Z,6.53
2018-12-12T12:58:15.376Z,6.77
2018-12-12T13:03:21.307Z,6.90
2018-12-12T13:08:25.440Z,9.10
2018-12-12T13:13:31.157Z,7.87
2018-12-12T13:18:34.718Z,7.85
2018-12-12T13:23:38.329Z,6.50
2018-12-12T13:28:41.658Z,6.40
2018-12-12T13:33:45.282Z,7.00
2018-12-12T13:38:48.811Z,6.58
2018-12-12T13:43:52.062Z,5.30
2018-12-12T13:48:55.683Z,6.25
2018-12-12T13:53:59.212Z,5.78
2018-12-12T13:59:02.478Z,5.30
2018-12-12T14:04:06.055Z,5.03
2018-12-12T14:09:09.477Z,5.80
2018-12-12T14:14:13.055Z,5.75
2018-12-12T14:19:16.559Z,5.60
2018-12-12T14:24:19.869Z,6.40
2018-12-12T14:29:23.881Z,6.13
2018-12-12T14:34:29.274Z,6.40
2018-12-12T14:39:33.953Z,6.20
2018-12-12T14:44:37.296Z,6.58
2018-12-12T14:49:40.771Z,6.00
2018-12-12T14:54:44.118Z,6.28
2018-12-12T14:59:47.483Z,6.03
2018-12-12T15:04:51.007Z,5.05
2018-12-12T15:09:54.373Z,5.10
2018-12-12T15:14:57.758Z,5.30
2018-12-12T15:20:01.145Z,5.30
2018-12-12T15:25:05.150Z,5.22
2018-12-12T15:30:09.275Z,5.60
2018-12-12T15:35:13.450Z,7.80
2018-12-12T15:40:17.543Z,5.80
2018-12-12T15:45:21.939Z,5.50
2018-12-12T15:50:25.821Z,5.80
2018-12-12T15:55:29.434Z,5.20
2018-12-12T16:00:33.855Z,4.90
2018-12-12T16:05:39.119Z,4.95
2018-12-12T16:10:42.528Z,5.17
2018-12-12T16:15:45.951Z,4.60
2018-12-12T16:20:49.909Z,4.40
2018-12-12T16:25:53.254Z,4.08
2018-12-12T16:30:56.650Z,4.58
2018-12-12T16:36:01.040Z,4.30
2018-12-12T16:41:04.480Z,4.37
2018-12-12T16:46:08.232Z,4.58
2018-12-12T16:51:11.818Z,7.60
2018-12-12T16:56:15.198Z,6.03
2018-12-12T17:01:18.656Z,4.70
2018-12-12T17:06:22.147Z,5.60
2018-12-12T17:11:25.613Z,5.40
2018-12-12T17:16:30.046Z,5.78
2018-12-12T17:21:33.412Z,5.10
2018-12-12T17:26:36.778Z,5.47
2018-12-12T17:31:40.149Z,4.47
2018-12-12T17:36:43.630Z,4.40
2018-12-12T17:41:47.002Z,3.90
2018-12-12T17:46:50.431Z,3.40
2018-12-12T17:51:53.846Z,3.90
2018-12-12T17:56:57.973Z,4.50
2018-12-12T18:02:01.445Z,5.00
2018-12-12T18:07:04.885Z,4.37
2018-12-12T18:12:08.347Z,3.80
2018-12-12T18:17:11.731Z,4.25
2018-12-12T18:22:15.154Z,3.30
2018-12-12T18:27:18.692Z,4.17
2018-12-12T18:32:22.187Z,3.60
2018-12-12T18:37:27.045Z,3.40
2018-12-12T18:42:30.489Z,3.90
2018-12-12T18:47:34.521Z,3.80
2018-12-12T18:52:38.871Z,5.73
2018-12-12T18:57:42.875Z,5.23
2018-12-12T19:02:46.444Z,5.58
2018-12-12T19:07:50.066Z,5.40
2018-12-12T19:12:53.388Z,5.75
2018-12-12T19:17:56.792Z,6.33
2018-12-12T19:23:00.911Z,5.28
2018-12-12T19:28:07.676Z,8.75
2018-12-12T19:33:11.883Z,7.30
2018-12-12T19:38:16.844Z,11.00
2018-12-12T19:43:27.128Z,11.18
2018-12-12T19:48:36.821Z,9.48
2018-12-12T19:53:41.988Z,12.57
2018-12-12T19:58:47.442Z,6.60
2018-12-12T20:03:52.954Z,8.80
2018-12-12T20:08:59.012Z,6.40
2018-12-12T20:14:03.598Z,6.90
2018-12-12T20:19:08.691Z,15.08
2018-12-12T20:24:13.997Z,31.65
2018-12-12T20:29:19.335Z,13.65
2018-12-12T20:34:24.510Z,8.75
2018-12-12T20:39:29.840Z,9.70
2018-12-12T20:44:40.563Z,6.83
2018-12-12T20:49:46.188Z,14.20
2018-12-12T21:00:18.240Z,14.25
2018-12-12T21:05:23.050Z,8.73
2018-12-12T21:10:28.030Z,6.90
2018-12-12T21:15:32.868Z,5.67
2018-12-12T21:20:37.875Z,5.80
2018-12-12T21:25:43.432Z,5.53
2018-12-12T21:30:47.482Z,5.28
2018-12-12T21:35:51.876Z,5.47
2018-12-12T21:40:56.244Z,6.47
2018-12-12T21:46:01.295Z,5.00
2018-12-12T21:51:05.665Z,5.70
2018-12-12T21:56:09.890Z,4.92
2018-12-12T22:01:29.540Z,5.17
2018-12-12T22:46:48.013Z,5.42
2018-12-12T22:52:02.426Z,5.37
